createdAt,value
2017-12-02T01:10:15.826Z,1.40
2017-12-02T01:11:32.901Z,1.40
2017-12-02T01:12:38.033Z,1.40
2017-12-02T01:13:43.207Z,1.40
2017-12-02T01:21:02.774Z,1.40
2017-12-02T01:22:08.179Z,1.40
2017-12-02T01:26:18.881Z,1.40
2017-12-02T01:27:23.930Z,1.40
2017-12-02T01:28:30.599Z,1.40
2017-12-02T01:29:35.982Z,1.40
2017-12-02T01:30:42.355Z,1.40
2017-12-02T01:31:58.132Z,1.40
2017-12-02T01:33:03.715Z,1.40
2017-12-02T01:34:08.873Z,1.40
2017-12-02T01:38:19.398Z,1.30
2017-12-02T01:39:24.497Z,1.30
2017-12-02T01:40:29.778Z,1.20
2017-12-02T01:41:36.637Z,1.30
2017-12-02T01:42:42.392Z,1.20
2017-12-02T01:43:47.736Z,1.20
2017-12-02T01:45:55.461Z,1.30
2017-12-02T01:47:00.774Z,1.20
2017-12-02T01:48:06.538Z,1.20
2017-12-02T01:49:12.471Z,1.10
2017-12-02T01:53:23.153Z,1.20
2017-12-02T01:57:56.650Z,1.10
2017-12-02T01:59:01.719Z,1.10
2017-12-02T02:00:18.255Z,1.10
2017-12-02T02:01:34.023Z,1.10
2017-12-02T02:02:39.160Z,1.10
2017-12-02T02:10:17.961Z,1.50
2017-12-02T02:11:24.232Z,1.50
2017-12-02T02:12:29.597Z,1.50
2017-12-02T02:19:46.066Z,1.40
2017-12-02T02:20:51.162Z,1.20
2017-12-02T02:21:56.602Z,1.20
2017-12-02T02:24:33.811Z,1.40
2017-12-02T02:25:39.820Z,1.30
2017-12-02T02:28:26.656Z,1.40
2017-12-02T02:29:42.861Z,1.40
2017-12-02T02:30:48.765Z,1.30
2017-12-02T02:31:53.933Z,1.30
2017-12-02T02:32:59.061Z,1.30
2017-12-02T02:34:04.872Z,1.40
2017-12-02T02:35:10.685Z,1.40
2017-12-02T02:36:16.017Z,1.40
2017-12-02T02:37:21.460Z,1.40
2017-12-02T02:38:26.692Z,1.40
2017-12-02T02:39:32.573Z,1.40
2017-12-02T02:45:22.054Z,1.00
2017-12-02T02:46:27.448Z,0.90
2017-12-02T02:47:32.910Z,0.90
2017-12-02T02:48:39.279Z,0.90
2017-12-02T02:49:44.656Z,0.90
2017-12-02T02:53:54.955Z,0.80
2017-12-02T02:55:00.134Z,0.80
2017-12-02T02:56:05.213Z,0.80
2017-12-02T03:00:17.530Z,0.80
2017-12-02T03:01:22.536Z,0.80
2017-12-02T03:02:28.938Z,0.80
2017-12-02T03:03:36.510Z,0.70
2017-12-02T03:07:49.461Z,0.80
2017-12-02T03:08:55.568Z,0.90
2017-12-02T03:10:00.768Z,0.90
2017-12-02T03:11:06.173Z,0.80
2017-12-02T03:12:15.470Z,0.70
2017-12-02T03:13:21.104Z,0.70
2017-12-02T03:17:22.000Z,0.90
2017-12-02T03:18:29.007Z,1.10
2017-12-02T03:19:34.344Z,1.20
2017-12-02T03:20:50.249Z,1.30
2017-12-02T03:21:56.639Z,1.20
2017-12-02T03:23:01.808Z,1.20
2017-12-02T03:27:34.596Z,1.10
2017-12-02T03:28:40.680Z,1.00
2017-12-02T03:34:31.300Z,1.10
2017-12-02T03:42:10.048Z,1.20
2017-12-02T03:43:16.349Z,1.20
2017-12-02T03:44:21.568Z,1.10
2017-12-02T03:45:27.321Z,1.10
2017-12-02T03:46:32.709Z,0.90
2017-12-02T03:57:39.906Z,0.80
2017-12-02T03:58:56.083Z,0.80
2017-12-02T04:01:32.733Z,0.70
2017-12-02T04:02:38.118Z,0.70
2017-12-02T04:03:44.575Z,0.70
2017-12-02T04:07:54.774Z,0.70
2017-12-02T04:09:00.609Z,0.90
2017-12-02T04:13:33.757Z,1.30
2017-12-02T04:14:39.997Z,1.40
2017-12-02T04:15:45.700Z,1.30
2017-12-02T04:16:50.743Z,1.30
2017-12-02T04:17:55.932Z,1.30
2017-12-02T04:19:03.300Z,1.30
2017-12-02T04:24:24.219Z,1.40
2017-12-02T04:28:35.496Z,1.30
2017-12-02T04:35:48.797Z,1.60
2017-12-02T04:37:09.578Z,1.60
2017-12-02T04:38:14.739Z,1.60
2017-12-02T04:50:54.776Z,1.90
2017-12-02T04:52:01.081Z,1.80
2017-12-02T04:53:07.056Z,1.70
2017-12-02T04:54:22.425Z,1.60
2017-12-02T04:57:11.130Z,1.60
2017-12-02T04:58:17.307Z,1.60
2017-12-02T04:59:23.013Z,1.60
2017-12-02T05:00:30.673Z,1.70
2017-12-02T05:01:46.941Z,1.70
2017-12-02T05:02:53.042Z,1.60
2017-12-02T05:05:29.925Z,1.50
2017-12-02T05:06:35.207Z,1.50
2017-12-02T05:10:46.512Z,1.50
2017-12-02T05:11:51.804Z,1.50
2017-12-02T05:12:57.092Z,1.60
2017-12-02T05:15:35.124Z,1.60
2017-12-02T05:16:53.406Z,1.60
2017-12-02T05:17:58.922Z,1.60
2017-12-02T05:19:05.529Z,1.60
2017-12-02T05:20:13.355Z,1.60
2017-12-02T05:21:19.455Z,1.60
2017-12-02T05:25:31.196Z,1.60
2017-12-02T05:36:45.203Z,1.50
2017-12-02T05:38:00.677Z,1.60
2017-12-02T05:40:46.901Z,1.80
2017-12-02T05:43:24.692Z,2.00
2017-12-02T05:46:24.855Z,2.00
2017-12-02T05:47:41.475Z,2.00
2017-12-02T05:48:55.852Z,1.90
2017-12-02T05:50:01.691Z,1.80
2017-12-02T05:51:06.864Z,1.80
2017-12-02T05:53:25.382Z,1.90
2017-12-02T05:56:44.833Z,2.00
2017-12-02T06:02:34.356Z,2.00
2017-12-02T06:03:40.469Z,1.90
2017-12-02T06:08:52.198Z,2.00
2017-12-02T06:09:59.988Z,2.20
2017-12-02T06:12:37.030Z,2.20
2017-12-02T06:13:42.269Z,2.20
2017-12-02T06:14:47.464Z,2.10
2017-12-02T06:19:20.793Z,1.70
2017-12-02T06:25:11.949Z,1.60
2017-12-02T06:26:19.371Z,1.60
2017-12-02T06:27:24.665Z,1.60
2017-12-02T06:28:30.095Z,1.60
2017-12-02T06:34:11.769Z,1.50
2017-12-02T06:35:16.925Z,1.40
2017-12-02T06:36:22.396Z,1.30
2017-12-02T06:37:38.623Z,1.20
2017-12-02T06:38:43.897Z,1.20
2017-12-02T06:41:19.916Z,1.10
2017-12-02T06:42:26.947Z,1.10
2017-12-02T06:43:32.209Z,1.00
2017-12-02T06:44:37.753Z,1.10
2017-12-02T06:53:26.588Z,1.10
2017-12-02T07:08:10.313Z,1.20
2017-12-02T07:12:21.500Z,1.20
2017-12-02T07:15:33.625Z,1.10
2017-12-02T07:29:47.841Z,1.10
2017-12-02T07:30:52.993Z,1.20
2017-12-02T07:31:58.447Z,1.20
2017-12-02T07:36:21.177Z,1.20
2017-12-02T07:38:56.950Z,1.50
2017-12-02T07:40:09.574Z,1.50
2017-12-02T07:41:16.468Z,1.50
2017-12-02T07:42:22.551Z,1.50
2017-12-02T07:43:28.085Z,1.50
2017-12-02T07:44:33.556Z,1.60
2017-12-02T07:45:39.745Z,1.60
2017-12-02T07:46:45.223Z,1.60
2017-12-02T07:47:50.391Z,1.60
2017-12-02T07:48:55.742Z,1.50
2017-12-02T07:50:01.180Z,1.60
2017-12-02T07:51:06.476Z,1.60
2017-12-02T07:52:12.414Z,1.70
2017-12-02T07:53:18.438Z,1.60
2017-12-02T07:54:23.537Z,1.60
2017-12-02T07:55:29.030Z,1.50
2017-12-02T07:56:35.042Z,1.50
2017-12-02T07:57:40.186Z,1.50
2017-12-02T07:58:45.621Z,1.50
2017-12-02T07:59:52.147Z,1.50
2017-12-02T08:00:57.674Z,1.50
2017-12-02T08:02:02.758Z,1.50
2017-12-02T08:03:08.697Z,1.70
2017-12-02T08:04:14.715Z,1.80
2017-12-02T08:05:20.152Z,1.80
2017-12-02T08:06:25.261Z,1.80
2017-12-02T08:07:30.552Z,1.80
2017-12-02T08:08:35.763Z,1.90
2017-12-02T08:09:42.018Z,1.70
2017-12-02T08:10:47.901Z,1.70
2017-12-02T08:11:53.191Z,1.70
2017-12-02T08:12:59.280Z,1.60
2017-12-02T08:14:04.563Z,1.60
2017-12-02T08:15:09.992Z,1.60
2017-12-02T08:16:15.164Z,1.50
2017-12-02T08:17:20.306Z,1.40
2017-12-02T08:18:25.595Z,1.40
2017-12-02T08:19:31.648Z,1.40
2017-12-02T08:20:37.124Z,1.40
2017-12-02T08:21:43.726Z,1.50
2017-12-02T08:22:49.726Z,1.50
2017-12-02T08:23:54.947Z,1.50
2017-12-02T08:25:00.161Z,1.60
2017-12-02T08:26:05.478Z,1.70
2017-12-02T08:27:10.713Z,1.70
2017-12-02T08:28:15.869Z,1.80
2017-12-02T08:29:21.132Z,1.80
2017-12-02T08:30:26.258Z,1.80
2017-12-02T08:31:31.482Z,1.90
2017-12-02T08:32:36.606Z,1.90
2017-12-02T08:33:41.913Z,2.00
2017-12-02T08:34:47.420Z,2.00
2017-12-02T08:35:52.827Z,2.00
2017-12-02T08:36:58.264Z,2.00
2017-12-02T08:38:04.268Z,2.00
2017-12-02T08:39:09.474Z,1.90
2017-12-02T08:40:14.745Z,2.00
2017-12-02T08:41:19.237Z,2.00
2017-12-02T08:42:24.758Z,2.00
2017-12-02T08:43:30.085Z,2.10
2017-12-02T08:44:35.335Z,2.10
2017-12-02T08:45:40.614Z,2.20
2017-12-02T08:46:46.248Z,2.20
2017-12-02T08:47:52.178Z,2.30
2017-12-02T08:48:58.099Z,2.40
2017-12-02T08:50:03.215Z,2.40
2017-12-02T08:51:08.404Z,2.40
2017-12-02T08:52:13.625Z,2.40
2017-12-02T08:53:18.814Z,2.50
2017-12-02T08:54:24.433Z,2.50
2017-12-02T08:55:29.664Z,2.40
2017-12-02T08:56:34.813Z,2.40
2017-12-02T08:57:40.100Z,2.40
2017-12-02T08:58:45.244Z,2.30
2017-12-02T08:59:50.604Z,2.30
2017-12-02T09:00:55.949Z,2.20
2017-12-02T09:02:02.593Z,2.10
2017-12-02T09:03:09.374Z,2.10
2017-12-02T09:04:15.823Z,2.00
2017-12-02T09:05:21.304Z,2.00
2017-12-02T09:06:26.750Z,1.90
2017-12-02T09:07:31.968Z,1.90
2017-12-02T09:08:37.107Z,1.80
2017-12-02T09:09:42.430Z,1.90
2017-12-02T09:10:47.980Z,1.90
2017-12-02T09:11:53.298Z,1.90
2017-12-02T09:12:58.486Z,1.90
2017-12-02T09:14:04.491Z,2.00
2017-12-02T09:15:09.726Z,2.00
2017-12-02T09:16:14.845Z,2.10
2017-12-02T09:17:20.199Z,2.10
2017-12-02T09:18:25.506Z,2.20
2017-12-02T09:19:30.817Z,2.20
2017-12-02T09:20:36.095Z,2.10
2017-12-02T09:21:41.554Z,2.10
2017-12-02T09:22:47.510Z,2.20
2017-12-02T09:23:52.752Z,2.20
2017-12-02T09:24:57.909Z,2.10
2017-12-02T09:26:03.019Z,2.10
2017-12-02T09:27:08.607Z,2.10
2017-12-02T09:28:14.636Z,2.00
2017-12-02T09:29:19.822Z,2.00
2017-12-02T09:30:25.139Z,2.00
2017-12-02T09:31:30.635Z,1.90
2017-12-02T09:32:36.629Z,1.80
2017-12-02T09:33:42.164Z,1.80
2017-12-02T09:34:47.393Z,1.80
2017-12-02T09:35:53.469Z,1.90
2017-12-02T09:36:58.709Z,1.90
2017-12-02T09:38:03.954Z,1.90
2017-12-02T09:39:09.232Z,2.10
2017-12-02T09:40:14.456Z,2.10
2017-12-02T09:41:20.136Z,2.20
2017-12-02T09:42:25.432Z,2.20
2017-12-02T09:43:30.774Z,2.10
2017-12-02T09:44:36.462Z,2.00
2017-12-02T09:45:42.442Z,1.90
2017-12-02T09:46:47.695Z,1.90
2017-12-02T09:47:53.105Z,2.00
2017-12-02T09:48:58.632Z,2.00
2017-12-02T09:50:03.782Z,2.00
2017-12-02T09:51:08.981Z,2.10
2017-12-02T09:52:14.259Z,2.00
2017-12-02T09:53:19.419Z,2.00
2017-12-02T09:54:25.424Z,2.00
2017-12-02T09:55:30.613Z,2.00
2017-12-02T09:56:35.758Z,2.00
2017-12-02T09:57:40.944Z,2.00
2017-12-02T09:58:47.148Z,2.00
2017-12-02T09:59:52.938Z,2.00
2017-12-02T10:00:59.105Z,2.00
2017-12-02T10:02:04.639Z,2.00
2017-12-02T10:03:10.590Z,1.90
2017-12-02T10:04:15.799Z,1.90
2017-12-02T10:05:21.031Z,1.80
2017-12-02T10:06:27.078Z,1.90
2017-12-02T10:07:33.088Z,1.90
2017-12-02T10:08:38.569Z,1.90
2017-12-02T10:09:44.839Z,1.90
2017-12-02T10:10:50.246Z,1.90
2017-12-02T10:11:55.703Z,1.90
2017-12-02T10:13:01.199Z,1.80
2017-12-02T10:14:06.487Z,1.80
2017-12-02T10:15:11.744Z,1.80
2017-12-02T10:16:17.176Z,1.80
2017-12-02T10:17:22.498Z,1.80
2017-12-02T10:18:27.700Z,1.80
2017-12-02T10:19:32.980Z,1.90
2017-12-02T10:20:38.252Z,1.90
2017-12-02T10:21:43.690Z,1.80
2017-12-02T10:22:48.901Z,1.80
2017-12-02T10:23:54.416Z,1.90
2017-12-02T10:25:00.553Z,1.80
2017-12-02T10:26:05.716Z,1.80
2017-12-02T10:27:11.104Z,1.90
2017-12-02T10:28:16.370Z,1.90
2017-12-02T10:29:21.937Z,1.90
2017-12-02T10:30:27.317Z,2.00
2017-12-02T10:31:32.561Z,2.00
2017-12-02T10:32:38.973Z,2.10
2017-12-02T10:33:44.316Z,2.10
2017-12-02T10:34:49.754Z,2.30
2017-12-02T10:35:55.005Z,2.20
2017-12-02T10:37:01.022Z,2.30
2017-12-02T10:38:06.387Z,2.30
2017-12-02T10:39:12.325Z,2.50
2017-12-02T10:40:18.575Z,2.50
2017-12-02T10:41:23.858Z,2.50
2017-12-02T10:42:29.278Z,2.50
2017-12-02T10:43:34.567Z,2.50
2017-12-02T10:44:40.575Z,2.40
2017-12-02T10:45:45.757Z,2.40
2017-12-02T10:46:51.817Z,2.40
2017-12-02T10:47:57.327Z,2.40
2017-12-02T10:49:02.502Z,2.40
2017-12-02T10:50:07.833Z,2.40
2017-12-02T10:51:13.168Z,2.40
2017-12-02T10:52:18.468Z,2.40
2017-12-02T10:53:24.982Z,2.40
2017-12-02T10:54:30.108Z,2.30
2017-12-02T10:55:35.732Z,2.30
2017-12-02T10:56:40.949Z,2.30
2017-12-02T10:57:46.331Z,2.30
2017-12-02T10:58:51.992Z,2.30
2017-12-02T10:59:57.102Z,2.30
2017-12-02T11:01:02.914Z,2.30
2017-12-02T11:02:08.063Z,2.30
2017-12-02T11:03:13.971Z,2.20
2017-12-02T11:04:19.348Z,2.20
2017-12-02T11:05:25.307Z,2.20
2017-12-02T11:06:31.254Z,2.20
2017-12-02T11:07:37.046Z,2.20
2017-12-02T11:08:42.233Z,2.20
2017-12-02T11:09:47.837Z,2.30
2017-12-02T11:10:52.912Z,2.40
2017-12-02T11:11:58.104Z,2.40
2017-12-02T11:13:04.081Z,2.50
2017-12-02T11:14:09.548Z,2.50
2017-12-02T11:15:17.212Z,2.60
2017-12-02T11:16:22.500Z,2.60
2017-12-02T11:17:28.357Z,2.70
2017-12-02T11:18:33.644Z,2.70
2017-12-02T11:19:42.749Z,2.70
2017-12-02T11:20:48.466Z,2.70
2017-12-02T11:21:53.661Z,2.70
2017-12-02T11:22:59.615Z,2.70
2017-12-02T11:24:05.568Z,2.60
2017-12-02T11:25:10.728Z,2.60
2017-12-02T11:26:15.841Z,2.60
2017-12-02T11:27:20.987Z,2.50
2017-12-02T11:28:26.216Z,2.50
2017-12-02T11:29:31.432Z,2.50
2017-12-02T11:30:36.642Z,2.50
2017-12-02T11:31:41.804Z,2.50
2017-12-02T11:32:46.947Z,2.50
2017-12-02T11:33:52.231Z,2.40
2017-12-02T11:34:57.438Z,2.50
2017-12-02T11:36:02.584Z,2.50
2017-12-02T11:37:07.946Z,2.40
2017-12-02T11:38:13.673Z,2.40
2017-12-02T11:39:19.214Z,2.40
2017-12-02T11:40:25.228Z,2.30
2017-12-02T11:41:30.584Z,2.30
2017-12-02T11:42:35.656Z,2.30
2017-12-02T11:43:41.579Z,2.20
2017-12-02T11:44:46.820Z,2.20
2017-12-02T11:45:52.178Z,2.20
2017-12-02T11:46:58.062Z,2.10
2017-12-02T11:48:03.193Z,2.00
2017-12-02T11:49:08.343Z,2.00
2017-12-02T11:50:13.694Z,2.00
2017-12-02T11:51:19.630Z,2.10
2017-12-02T11:52:25.487Z,2.10
2017-12-02T11:53:31.394Z,2.10
2017-12-02T11:54:36.465Z,2.10
2017-12-02T11:55:42.428Z,2.10
2017-12-02T11:56:47.599Z,2.00
2017-12-02T11:57:52.726Z,1.90
2017-12-02T11:58:57.920Z,1.80
2017-12-02T12:00:03.281Z,1.70
2017-12-02T12:01:08.528Z,1.60
2017-12-02T12:02:13.858Z,1.60
2017-12-02T12:03:18.962Z,1.70
2017-12-02T12:04:24.136Z,1.80
2017-12-02T12:05:30.256Z,2.00
2017-12-02T12:06:35.486Z,2.00
2017-12-02T12:07:40.990Z,2.20
2017-12-02T12:09:20.922Z,2.20
2017-12-02T12:10:26.128Z,2.30
2017-12-02T12:11:31.277Z,2.50
2017-12-02T12:12:36.541Z,2.50
2017-12-02T12:13:41.608Z,2.60
2017-12-02T12:14:48.291Z,2.70
2017-12-02T12:15:53.410Z,2.70
2017-12-02T12:16:58.764Z,2.80
2017-12-02T12:18:03.908Z,2.80
2017-12-02T12:19:09.139Z,2.90
2017-12-02T12:20:14.250Z,2.90
2017-12-02T12:21:19.656Z,3.00
2017-12-02T12:22:24.712Z,3.00
2017-12-02T12:23:29.875Z,3.00
2017-12-02T12:24:35.913Z,2.90
2017-12-02T12:25:41.038Z,2.90
2017-12-02T12:26:46.518Z,2.90
2017-12-02T12:27:51.665Z,3.00
2017-12-02T12:28:56.957Z,2.90
2017-12-02T12:30:02.926Z,2.70
2017-12-02T12:31:08.095Z,2.70
2017-12-02T12:32:13.178Z,2.70
2017-12-02T12:33:18.250Z,2.50
2017-12-02T12:34:23.350Z,2.50
2017-12-02T12:35:28.446Z,2.50
2017-12-02T12:36:33.543Z,2.40
2017-12-02T12:37:39.819Z,2.30
2017-12-02T12:38:45.019Z,2.30
2017-12-02T12:39:51.079Z,2.30
2017-12-02T12:40:56.894Z,2.40
2017-12-02T12:42:02.461Z,2.30
2017-12-02T12:43:08.675Z,2.50
2017-12-02T12:44:13.753Z,2.50
2017-12-02T12:45:19.010Z,2.50
2017-12-02T12:46:24.072Z,2.60
2017-12-02T12:47:29.203Z,2.60
2017-12-02T12:48:35.581Z,2.70
2017-12-02T12:49:40.769Z,2.70
2017-12-02T12:50:46.161Z,2.70
2017-12-02T12:51:51.413Z,2.80
2017-12-02T12:52:56.531Z,2.80
2017-12-02T12:54:01.697Z,2.90
2017-12-02T12:55:07.101Z,2.90
2017-12-02T12:56:12.374Z,2.90
2017-12-02T12:57:18.294Z,3.00
2017-12-02T12:58:23.424Z,3.00
2017-12-02T12:59:28.673Z,3.00
2017-12-02T13:00:34.775Z,3.10
2017-12-02T13:01:40.062Z,3.10
2017-12-02T13:02:45.088Z,3.10
2017-12-02T13:03:50.199Z,3.20
2017-12-02T13:04:56.180Z,3.20
2017-12-02T13:06:01.560Z,3.10
2017-12-02T13:07:06.939Z,3.20
2017-12-02T13:08:12.129Z,3.20
2017-12-02T13:09:17.212Z,3.20
2017-12-02T13:10:22.420Z,3.20
2017-12-02T13:11:27.946Z,3.20
2017-12-02T13:12:33.199Z,3.20
2017-12-02T13:13:38.472Z,3.20
2017-12-02T13:14:44.337Z,3.20
2017-12-02T13:15:51.255Z,3.10
2017-12-02T13:16:56.449Z,3.10
2017-12-02T13:18:01.728Z,3.00
2017-12-02T13:19:06.835Z,2.90
2017-12-02T13:20:11.971Z,2.90
2017-12-02T13:21:17.101Z,2.80
2017-12-02T13:22:22.558Z,2.70
2017-12-02T13:23:28.237Z,2.60
2017-12-02T13:24:33.380Z,2.50
2017-12-02T13:25:38.689Z,2.50
2017-12-02T13:26:43.899Z,2.40
2017-12-02T13:27:50.613Z,2.40
2017-12-02T13:28:55.735Z,2.40
2017-12-02T13:30:01.904Z,2.40
2017-12-02T13:31:07.056Z,2.40
2017-12-02T13:32:12.975Z,2.40
2017-12-02T13:33:18.119Z,2.40
2017-12-02T13:34:23.464Z,2.40
2017-12-02T13:35:28.753Z,2.40
2017-12-02T13:36:34.727Z,2.40
2017-12-02T13:37:40.160Z,2.40
2017-12-02T13:38:45.622Z,2.30
2017-12-02T13:39:50.866Z,2.30
2017-12-02T13:40:56.532Z,2.40
2017-12-02T13:42:01.646Z,2.40
2017-12-02T13:43:06.765Z,2.40
2017-12-02T13:44:11.890Z,2.40
2017-12-02T13:45:17.129Z,2.50
2017-12-02T13:46:22.330Z,2.50
2017-12-02T13:47:27.590Z,2.50
2017-12-02T13:48:32.602Z,2.50
2017-12-02T13:49:37.688Z,2.50
2017-12-02T13:50:44.002Z,2.50
2017-12-02T13:51:49.299Z,2.50
2017-12-02T13:52:54.925Z,2.50
2017-12-02T13:54:01.141Z,2.40
2017-12-02T13:55:07.114Z,2.40
2017-12-02T13:56:12.305Z,2.50
2017-12-02T13:57:18.689Z,2.40
2017-12-02T13:58:25.357Z,2.40
2017-12-02T13:59:31.263Z,2.30
2017-12-02T14:00:36.414Z,2.30
2017-12-02T14:01:46.452Z,2.40
2017-12-02T14:02:51.875Z,2.40
2017-12-02T14:03:58.004Z,2.40
2017-12-02T14:05:03.263Z,2.40
2017-12-02T14:06:08.345Z,2.40
2017-12-02T14:07:13.748Z,2.40
2017-12-02T14:08:19.695Z,2.40
2017-12-02T14:09:25.354Z,2.40
2017-12-02T14:10:30.500Z,2.40
2017-12-02T14:11:35.624Z,2.40
2017-12-02T14:12:40.873Z,2.30
2017-12-02T14:13:46.022Z,2.40
2017-12-02T14:14:51.996Z,2.50
2017-12-02T14:15:57.155Z,2.50
2017-12-02T14:17:02.299Z,2.50
2017-12-02T14:18:07.402Z,2.50
2017-12-02T14:19:13.116Z,2.50
2017-12-02T14:20:18.177Z,2.50
2017-12-02T14:21:23.431Z,2.40
2017-12-02T14:22:28.657Z,2.40
2017-12-02T14:23:33.934Z,2.30
2017-12-02T14:24:39.772Z,2.40
2017-12-02T14:25:44.976Z,2.50
2017-12-02T14:26:51.493Z,2.50
2017-12-02T14:27:56.557Z,2.50
2017-12-02T14:29:02.569Z,2.50
2017-12-02T14:30:08.225Z,2.50
2017-12-02T14:31:13.366Z,2.60
2017-12-02T14:32:18.596Z,2.60
2017-12-02T14:33:24.564Z,2.60
2017-12-02T14:34:29.869Z,2.60
2017-12-02T14:35:35.014Z,2.70
2017-12-02T14:36:40.896Z,2.80
2017-12-02T14:37:46.062Z,2.80
2017-12-02T14:38:52.459Z,2.70
2017-12-02T14:39:58.262Z,2.70
2017-12-02T14:41:04.520Z,2.70
2017-12-02T14:42:10.690Z,2.70
2017-12-02T14:43:15.836Z,2.60
2017-12-02T14:44:20.917Z,2.50
2017-12-02T14:45:26.324Z,2.50
2017-12-02T14:46:31.817Z,2.60
2017-12-02T14:47:36.893Z,2.50
2017-12-02T14:48:42.093Z,2.40
2017-12-02T14:49:47.266Z,2.40
2017-12-02T14:50:53.056Z,2.40
2017-12-02T14:51:58.214Z,2.40
2017-12-02T14:53:03.351Z,2.20
2017-12-02T14:54:08.583Z,2.20
2017-12-02T14:55:13.650Z,2.20
2017-12-02T14:56:18.775Z,2.20
2017-12-02T14:57:23.978Z,2.20
2017-12-02T14:58:30.192Z,2.20
2017-12-02T14:59:35.407Z,2.20
2017-12-02T15:00:41.553Z,2.20
2017-12-02T15:01:46.688Z,2.10
2017-12-02T15:02:52.093Z,2.10
2017-12-02T15:03:57.597Z,2.00
2017-12-02T15:05:02.692Z,1.90
2017-12-02T15:06:07.863Z,1.90
2017-12-02T15:07:13.899Z,1.90
2017-12-02T15:08:19.740Z,2.00
2017-12-02T15:09:26.759Z,2.00
2017-12-02T15:10:32.410Z,2.00
2017-12-02T15:11:37.614Z,1.90
2017-12-02T15:12:42.794Z,2.00
2017-12-02T15:13:48.054Z,2.10
2017-12-02T15:14:53.370Z,2.10
2017-12-02T15:15:59.440Z,1.90
2017-12-02T15:17:04.774Z,2.00
2017-12-02T15:18:09.935Z,1.90
2017-12-02T15:19:16.004Z,1.90
2017-12-02T15:20:21.650Z,1.90
2017-12-02T15:21:26.792Z,1.90
2017-12-02T15:22:32.699Z,2.00
2017-12-02T15:23:37.866Z,2.00
2017-12-02T15:24:43.888Z,1.90
2017-12-02T15:25:49.151Z,2.00
2017-12-02T15:26:56.793Z,2.00
2017-12-02T15:28:01.951Z,2.00
2017-12-02T15:29:07.832Z,1.90
2017-12-02T15:30:13.597Z,1.90
2017-12-02T15:31:18.928Z,1.90
2017-12-02T15:32:24.033Z,1.90
2017-12-02T15:33:29.187Z,1.80
2017-12-02T15:34:34.294Z,1.80
2017-12-02T15:35:39.450Z,1.80
2017-12-02T15:36:44.954Z,1.80
2017-12-02T15:37:50.373Z,1.90
2017-12-02T15:38:55.597Z,1.90
2017-12-02T15:40:00.769Z,1.90
2017-12-02T15:41:06.323Z,2.00
2017-12-02T15:42:12.574Z,1.90
2017-12-02T15:43:17.720Z,1.90
2017-12-02T15:44:23.670Z,1.90
2017-12-02T15:45:29.551Z,2.00
2017-12-02T15:46:35.757Z,1.90
2017-12-02T15:47:41.902Z,1.90
2017-12-02T15:48:47.766Z,1.90
2017-12-02T15:49:52.963Z,1.80
2017-12-02T15:50:58.205Z,1.90
2017-12-02T15:52:04.170Z,1.90
2017-12-02T15:53:10.837Z,1.90
2017-12-02T15:54:16.997Z,1.90
2017-12-02T15:55:22.222Z,1.90
2017-12-02T15:56:27.560Z,2.00
2017-12-02T15:57:33.231Z,2.00
2017-12-02T15:58:38.654Z,1.90
2017-12-02T15:59:43.922Z,1.90
2017-12-02T16:00:50.186Z,1.90
2017-12-02T16:01:55.480Z,1.90
2017-12-02T16:03:00.671Z,1.90
2017-12-02T16:04:05.999Z,1.90
2017-12-02T16:05:11.133Z,1.90
2017-12-02T16:06:16.616Z,1.90
2017-12-02T16:07:23.493Z,2.00
2017-12-02T16:08:28.797Z,2.00
2017-12-02T16:09:36.030Z,2.00
2017-12-02T16:10:41.282Z,2.10
2017-12-02T16:11:47.971Z,2.20
2017-12-02T16:12:53.909Z,2.20
2017-12-02T16:13:59.145Z,2.30
2017-12-02T16:15:04.742Z,2.30
2017-12-02T16:16:12.338Z,2.30
2017-12-02T16:17:19.864Z,2.30
2017-12-02T16:18:25.684Z,2.30
2017-12-02T16:19:31.589Z,2.30
2017-12-02T16:20:37.697Z,2.40
2017-12-02T16:21:42.786Z,2.40
2017-12-02T16:22:47.946Z,2.50
2017-12-02T16:23:53.124Z,2.50
2017-12-02T16:24:58.248Z,2.50
2017-12-02T16:26:03.439Z,2.60
2017-12-02T16:27:10.374Z,2.60
2017-12-02T16:28:16.058Z,2.60
2017-12-02T16:29:22.346Z,2.70
2017-12-02T16:30:28.396Z,2.60
2017-12-02T16:31:33.679Z,2.70
2017-12-02T16:32:39.637Z,2.70
2017-12-02T16:33:46.118Z,2.60
2017-12-02T16:34:51.536Z,2.70
2017-12-02T16:35:57.300Z,2.60
2017-12-02T16:37:03.401Z,2.50
2017-12-02T16:38:12.172Z,2.60
2017-12-02T16:39:18.327Z,2.60
2017-12-02T16:40:24.135Z,2.60
2017-12-02T16:41:30.190Z,2.70
2017-12-02T16:42:35.405Z,2.70
2017-12-02T16:44:11.160Z,2.70
2017-12-02T16:45:16.994Z,2.80
2017-12-02T16:46:22.270Z,2.70
2017-12-02T16:47:28.287Z,2.70
2017-12-02T16:48:33.519Z,2.80
2017-12-02T16:49:38.972Z,2.70
2017-12-02T16:50:45.703Z,2.80
2017-12-02T16:51:51.241Z,2.80
2017-12-02T16:52:56.852Z,2.70
2017-12-02T16:54:02.858Z,2.50
2017-12-02T16:55:08.905Z,2.50
2017-12-02T16:56:14.355Z,2.50
2017-12-02T16:57:19.720Z,2.50
2017-12-02T16:58:25.653Z,2.30
2017-12-02T16:59:30.775Z,2.30
2017-12-02T17:00:37.484Z,2.30
2017-12-02T17:01:42.686Z,2.30
2017-12-02T17:02:48.776Z,2.30
2017-12-02T17:03:56.358Z,2.30
2017-12-02T17:05:02.892Z,2.30
2017-12-02T17:06:08.094Z,2.30
2017-12-02T17:07:14.368Z,2.30
2017-12-02T17:08:19.551Z,2.30
2017-12-02T17:09:24.727Z,2.30
2017-12-02T17:10:30.884Z,2.30
2017-12-02T17:11:37.329Z,2.30
2017-12-02T17:12:43.221Z,2.40
2017-12-02T17:13:48.462Z,2.40
2017-12-02T17:14:54.574Z,2.40
2017-12-02T17:16:00.654Z,2.40
2017-12-02T17:17:05.812Z,2.40
2017-12-02T17:18:11.963Z,2.60
2017-12-02T17:19:18.451Z,2.60
2017-12-02T17:20:24.356Z,2.60
2017-12-02T17:21:29.803Z,2.70
2017-12-02T17:22:35.233Z,2.70
2017-12-02T17:23:41.295Z,2.70
2017-12-02T17:24:46.510Z,2.70
2017-12-02T17:25:53.447Z,2.80
2017-12-02T17:26:59.530Z,2.70
2017-12-02T17:28:05.547Z,2.80
2017-12-02T17:29:10.754Z,2.80
2017-12-02T17:30:15.925Z,2.70
2017-12-02T17:31:22.061Z,2.70
2017-12-02T17:32:27.169Z,2.60
2017-12-02T17:33:32.480Z,2.60
2017-12-02T17:34:37.597Z,2.50
2017-12-02T17:35:43.361Z,2.50
2017-12-02T17:36:48.474Z,2.50
2017-12-02T17:37:54.176Z,2.50
2017-12-02T17:38:59.507Z,2.50
2017-12-02T17:40:05.381Z,2.60
2017-12-02T17:41:13.307Z,2.70
2017-12-02T17:42:19.061Z,2.70
2017-12-02T17:43:25.302Z,2.70
2017-12-02T17:44:30.743Z,2.70
2017-12-02T17:45:36.435Z,2.70
2017-12-02T17:46:43.018Z,2.80
2017-12-02T17:47:48.170Z,2.80
2017-12-02T17:48:53.369Z,2.80
2017-12-02T17:49:59.302Z,2.80
2017-12-02T17:51:06.010Z,2.90
2017-12-02T17:52:13.004Z,2.90
2017-12-02T17:53:18.932Z,2.80
2017-12-02T17:54:24.492Z,2.70
2017-12-02T17:55:30.755Z,2.70
2017-12-02T17:56:36.562Z,2.60
2017-12-02T17:57:44.534Z,2.60
2017-12-02T17:58:50.972Z,2.60
2017-12-02T17:59:56.694Z,2.60
2017-12-02T18:01:02.048Z,2.70
2017-12-02T18:02:07.404Z,2.70
2017-12-02T18:03:13.612Z,2.70
2017-12-02T18:04:18.960Z,2.70
2017-12-02T18:05:25.702Z,2.70
2017-12-02T18:06:30.838Z,2.60
2017-12-02T18:07:36.017Z,2.50
2017-12-02T18:08:41.980Z,2.50
2017-12-02T18:09:47.957Z,2.60
2017-12-02T18:10:53.645Z,2.60
2017-12-02T18:11:59.743Z,2.50
2017-12-02T18:13:05.144Z,2.50
2017-12-02T18:14:10.454Z,2.50
2017-12-02T18:15:15.702Z,2.60
2017-12-02T18:16:21.359Z,2.60
2017-12-02T18:17:26.654Z,2.60
2017-12-02T18:18:31.777Z,2.50
2017-12-02T18:19:36.997Z,2.60
2017-12-02T18:20:42.149Z,2.60
2017-12-02T18:21:48.596Z,2.60
2017-12-02T18:22:54.575Z,2.70
2017-12-02T18:23:59.751Z,2.60
2017-12-02T18:25:05.439Z,2.70
2017-12-02T18:26:11.999Z,2.70
2017-12-02T18:27:17.825Z,2.70
2017-12-02T18:28:22.957Z,2.70
2017-12-02T18:29:28.114Z,2.60
2017-12-02T18:30:33.612Z,2.50
2017-12-02T18:31:39.440Z,2.60
2017-12-02T18:32:46.711Z,2.60
2017-12-02T18:33:51.922Z,2.60
2017-12-02T18:34:57.029Z,2.60
2017-12-02T18:36:02.335Z,2.50
2017-12-02T18:37:08.305Z,2.50
2017-12-02T18:38:13.783Z,2.50
2017-12-02T18:39:18.906Z,2.60
2017-12-02T18:40:24.846Z,2.60
2017-12-02T18:41:30.037Z,2.60
2017-12-02T18:42:35.405Z,2.60
2017-12-02T18:43:40.592Z,2.60
2017-12-02T18:44:45.703Z,2.50
2017-12-02T18:45:50.878Z,2.50
2017-12-02T18:46:56.272Z,2.40
2017-12-02T18:48:02.513Z,2.40
2017-12-02T18:49:08.243Z,2.40
2017-12-02T18:50:14.105Z,2.50
2017-12-02T18:51:19.473Z,2.50
2017-12-02T18:52:24.526Z,2.50
2017-12-02T18:53:30.532Z,2.60
2017-12-02T18:54:37.370Z,2.60
2017-12-02T18:55:42.640Z,2.70
2017-12-02T18:56:47.948Z,2.70
2017-12-02T18:57:53.066Z,2.70
2017-12-02T18:58:58.199Z,2.80
2017-12-02T19:00:03.414Z,2.80
2017-12-02T19:01:08.610Z,2.80
2017-12-02T19:02:14.579Z,2.80
2017-12-02T19:03:19.770Z,2.80
2017-12-02T19:04:25.723Z,2.80
2017-12-02T19:05:32.170Z,2.80
2017-12-02T19:06:37.592Z,2.80
2017-12-02T19:07:42.727Z,2.90
2017-12-02T19:08:47.898Z,2.90
2017-12-02T19:09:53.119Z,2.90
2017-12-02T19:10:58.406Z,2.90
2017-12-02T19:12:03.596Z,2.80
2017-12-02T19:13:08.748Z,2.70
2017-12-02T19:14:15.420Z,2.40
2017-12-02T19:15:20.984Z,2.40
2017-12-02T19:16:27.040Z,2.50